sensor_id;sensor_type;location;lat;lon;timestamp;pressure;altitude;pressure_sealevel;temperature;humidity
72118;BME280;59992;47.490;8.736;2022-09-09T00:02:44;96385.25;;;13.05;91.04
72118;BME280;59992;47.490;8.736;2022-09-09T00:05:41;96382.29;;;13.05;89.57
72118;BME280;59992;47.490;8.736;2022-09-09T00:08:37;96383.65;;;13.07;89.77
72118;BME280;59992;47.490;8.736;2022-09-09T00:11:36;96381.16;;;13.05;90.41
72118;BME280;59992;47.490;8.736;2022-09-09T00:14:39;96379.15;;;13.03;91.61
72118;BME280;59992;47.490;8.736;2022-09-09T00:17:37;96374.36;;;13.02;91.63
72118;BME280;59992;47.490;8.736;2022-09-09T00:20:31;96375.74;;;13.03;90.06
72118;BME280;59992;47.490;8.736;2022-09-09T00:23:25;96381.45;;;13.05;90.99
72118;BME280;59992;47.490;8.736;2022-09-09T00:26:18;96380.70;;;13.09;92.08
72118;BME280;59992;47.490;8.736;2022-09-09T00:29:22;96378.48;;;13.15;91.55
72118;BME280;59992;47.490;8.736;2022-09-09T00:32:17;96368.60;;;13.16;90.23
72118;BME280;59992;47.490;8.736;2022-09-09T00:35:17;96374.84;;;13.23;90.57
72118;BME280;59992;47.490;8.736;2022-09-09T00:38:12;96373.91;;;13.27;91.48
72118;BME280;59992;47.490;8.736;2022-09-09T00:41:07;96373.77;;;13.31;91.93
72118;BME280;59992;47.490;8.736;2022-09-09T00:44:00;96368.14;;;13.35;91.57
72118;BME280;59992;47.490;8.736;2022-09-09T00:47:01;96371.02;;;13.40;90.21
72118;BME280;59992;47.490;8.736;2022-09-09T00:49:59;96369.13;;;13.41;90.19
72118;BME280;59992;47.490;8.736;2022-09-09T00:52:56;96368.29;;;13.42;90.10
72118;BME280;59992;47.490;8.736;2022-09-09T00:55:51;96366.45;;;13.42;90.37
72118;BME280;59992;47.490;8.736;2022-09-09T00:58:48;96361.96;;;13.44;89.17
72118;BME280;59992;47.490;8.736;2022-09-09T01:01:44;96359.98;;;13.47;90.37
72118;BME280;59992;47.490;8.736;2022-09-09T01:04:34;96356.16;;;13.52;91.53
72118;BME280;59992;47.490;8.736;2022-09-09T01:07:24;96358.60;;;13.57;90.08
72118;BME280;59992;47.490;8.736;2022-09-09T01:10:17;96365.52;;;13.57;91.85
72118;BME280;59992;47.490;8.736;2022-09-09T01:13:15;96362.94;;;13.56;90.37
72118;BME280;59992;47.490;8.736;2022-09-09T01:16:08;96365.08;;;13.53;90.85
72118;BME280;59992;47.490;8.736;2022-09-09T01:19:00;96365.00;;;13.50;90.02
72118;BME280;59992;47.490;8.736;2022-09-09T01:21:56;96362.71;;;13.50;89.85
72118;BME280;59992;47.490;8.736;2022-09-09T01:25:09;96368.27;;;13.47;89.95
72118;BME280;59992;47.490;8.736;2022-09-09T01:28:03;96368.35;;;13.45;89.67
72118;BME280;59992;47.490;8.736;2022-09-09T01:30:55;96371.93;;;13.41;90.71
72118;BME280;59992;47.490;8.736;2022-09-09T01:33:45;96370.17;;;13.42;90.60
72118;BME280;59992;47.490;8.736;2022-09-09T01:36:38;96373.00;;;13.39;89.74
72118;BME280;59992;47.490;8.736;2022-09-09T01:39:29;96371.65;;;13.35;89.85
72118;BME280;59992;47.490;8.736;2022-09-09T01:42:18;96378.56;;;13.32;90.85
72118;BME280;59992;47.490;8.736;2022-09-09T01:45:09;96376.05;;;13.26;90.80
72118;BME280;59992;47.490;8.736;2022-09-09T01:47:57;96360.69;;;13.18;90.42
72118;BME280;59992;47.490;8.736;2022-09-09T01:50:46;96381.30;;;13.26;90.31
72118;BME280;59992;47.490;8.736;2022-09-09T01:53:34;96377.89;;;13.22;90.23
72118;BME280;59992;47.490;8.736;2022-09-09T01:56:31;96381.69;;;13.18;89.80
72118;BME280;59992;47.490;8.736;2022-09-09T01:59:37;96386.48;;;13.16;88.87
72118;BME280;59992;47.490;8.736;2022-09-09T02:02:33;96388.84;;;13.12;91.07
72118;BME280;59992;47.490;8.736;2022-09-09T02:05:36;96391.73;;;13.09;92.14
72118;BME280;59992;47.490;8.736;2022-09-09T02:08:29;96394.08;;;13.08;91.21
72118;BME280;59992;47.490;8.736;2022-09-09T02:11:22;96394.61;;;13.07;91.25
72118;BME280;59992;47.490;8.736;2022-09-09T02:14:16;96389.05;;;13.08;90.40
72118;BME280;59992;47.490;8.736;2022-09-09T02:17:09;96395.23;;;13.10;90.07
72118;BME280;59992;47.490;8.736;2022-09-09T02:20:02;96399.03;;;13.10;90.58
72118;BME280;59992;47.490;8.736;2022-09-09T02:22:53;96408.08;;;13.11;89.31
72118;BME280;59992;47.490;8.736;2022-09-09T02:25:42;96411.73;;;13.14;89.58
72118;BME280;59992;47.490;8.736;2022-09-09T02:28:33;96417.05;;;13.16;90.10
72118;BME280;59992;47.490;8.736;2022-09-09T02:31:23;96414.61;;;13.14;90.25
72118;BME280;59992;47.490;8.736;2022-09-09T02:34:13;96408.45;;;13.12;90.15
72118;BME280;59992;47.490;8.736;2022-09-09T02:37:04;96409.20;;;13.13;89.33
72118;BME280;59992;47.490;8.736;2022-09-09T02:39:54;96417.66;;;13.14;90.73
72118;BME280;59992;47.490;8.736;2022-09-09T02:42:44;96414.14;;;13.15;89.67
72118;BME280;59992;47.490;8.736;2022-09-09T02:45:43;96414.38;;;13.14;90.67
72118;BME280;59992;47.490;8.736;2022-09-09T02:48:39;96420.70;;;13.15;90.32
72118;BME280;59992;47.490;8.736;2022-09-09T02:51:37;96419.17;;;13.15;91.14
72118;BME280;59992;47.490;8.736;2022-09-09T02:54:30;96419.77;;;13.13;91.90
72118;BME280;59992;47.490;8.736;2022-09-09T02:57:22;96426.11;;;13.21;90.36
72118;BME280;59992;47.490;8.736;2022-09-09T03:00:12;96429.91;;;13.24;90.82
72118;BME280;59992;47.490;8.736;2022-09-09T03:03:01;96425.27;;;13.27;89.37
72118;BME280;59992;47.490;8.736;2022-09-09T03:05:50;96427.70;;;13.29;89.61
72118;BME280;59992;47.490;8.736;2022-09-09T03:08:39;96435.16;;;13.33;91.55
72118;BME280;59992;47.490;8.736;2022-09-09T03:11:27;96436.75;;;13.40;90.56
72118;BME280;59992;47.490;8.736;2022-09-09T03:14:15;96437.52;;;13.47;90.71
72118;BME280;59992;47.490;8.736;2022-09-09T03:17:05;96433.16;;;13.52;90.20
72118;BME280;59992;47.490;8.736;2022-09-09T03:19:53;96431.04;;;13.54;89.94
72118;BME280;59992;47.490;8.736;2022-09-09T03:22:42;96431.04;;;13.56;90.26
72118;BME280;59992;47.490;8.736;2022-09-09T03:25:32;96433.39;;;13.60;89.59
72118;BME280;59992;47.490;8.736;2022-09-09T03:28:21;96433.53;;;13.64;90.04
72118;BME280;59992;47.490;8.736;2022-09-09T03:31:11;96431.55;;;13.66;91.13
72118;BME280;59992;47.490;8.736;2022-09-09T03:33:59;96430.57;;;13.71;90.46
72118;BME280;59992;47.490;8.736;2022-09-09T03:36:47;96425.16;;;13.75;90.48
72118;BME280;59992;47.490;8.736;2022-09-09T03:39:37;96425.16;;;13.76;91.00
72118;BME280;59992;47.490;8.736;2022-09-09T03:42:25;96422.48;;;13.77;92.18
72118;BME280;59992;47.490;8.736;2022-09-09T03:45:13;96428.64;;;13.80;91.25
72118;BME280;59992;47.490;8.736;2022-09-09T03:48:02;96430.99;;;13.84;91.26
72118;BME280;59992;47.490;8.736;2022-09-09T03:50:54;96432.20;;;13.87;91.01
72118;BME280;59992;47.490;8.736;2022-09-09T03:53:43;96432.43;;;13.92;90.43
72118;BME280;59992;47.490;8.736;2022-09-09T03:56:31;96423.80;;;13.96;89.71
72118;BME280;59992;47.490;8.736;2022-09-09T03:59:19;96421.44;;;14.00;89.19
72118;BME280;59992;47.490;8.736;2022-09-09T04:02:09;96427.90;;;14.03;91.09
72118;BME280;59992;47.490;8.736;2022-09-09T04:04:58;96431.70;;;14.07;92.00
72118;BME280;59992;47.490;8.736;2022-09-09T04:07:47;96427.80;;;14.11;91.22
72118;BME280;59992;47.490;8.736;2022-09-09T04:10:35;96431.23;;;14.16;92.19
72118;BME280;59992;47.490;8.736;2022-09-09T04:13:25;96434.40;;;14.23;91.22
72118;BME280;59992;47.490;8.736;2022-09-09T04:16:14;96439.44;;;14.28;92.01
72118;BME280;59992;47.490;8.736;2022-09-09T04:19:02;96436.52;;;14.32;91.37
72118;BME280;59992;47.490;8.736;2022-09-09T04:21:52;96433.33;;;14.32;91.96
72118;BME280;59992;47.490;8.736;2022-09-09T04:24:40;96428.52;;;14.32;92.16
72118;BME280;59992;47.490;8.736;2022-09-09T04:27:28;96440.77;;;14.36;91.58
72118;BME280;59992;47.490;8.736;2022-09-09T04:30:17;96436.59;;;14.38;91.56
72118;BME280;59992;47.490;8.736;2022-09-09T04:33:05;96422.73;;;14.34;91.91
72118;BME280;59992;47.490;8.736;2022-09-09T04:35:54;96429.95;;;14.36;91.60
72118;BME280;59992;47.490;8.736;2022-09-09T04:38:42;96427.23;;;14.34;92.34
72118;BME280;59992;47.490;8.736;2022-09-09T04:41:32;96431.80;;;14.36;92.98
72118;BME280;59992;47.490;8.736;2022-09-09T04:44:20;96430.41;;;14.34;92.08
72118;BME280;59992;47.490;8.736;2022-09-09T04:47:08;96430.58;;;14.33;91.32
72118;BME280;59992;47.490;8.736;2022-09-09T04:49:57;96427.39;;;14.30;90.49
72118;BME280;59992;47.490;8.736;2022-09-09T04:52:46;96425.40;;;14.26;90.72
72118;BME280;59992;47.490;8.736;2022-09-09T04:55:35;96414.39;;;14.25;90.47
72118;BME280;59992;47.490;8.736;2022-09-09T04:58:23;96424.20;;;14.24;89.62
72118;BME280;59992;47.490;8.736;2022-09-09T05:01:13;96430.21;;;14.25;90.72
72118;BME280;59992;47.490;8.736;2022-09-09T05:04:02;96425.86;;;14.32;90.78
72118;BME280;59992;47.490;8.736;2022-09-09T05:06:50;96416.85;;;14.37;89.93
72118;BME280;59992;47.490;8.736;2022-09-09T05:09:39;96420.73;;;14.38;91.47
72118;BME280;59992;47.490;8.736;2022-09-09T05:12:27;96423.69;;;14.41;90.44
72118;BME280;59992;47.490;8.736;2022-09-09T05:15:16;96425.59;;;14.42;90.35
72118;BME280;59992;47.490;8.736;2022-09-09T05:18:04;96427.11;;;14.42;90.26
72118;BME280;59992;47.490;8.736;2022-09-09T05:20:56;96426.07;;;14.39;90.19
72118;BME280;59992;47.490;8.736;2022-09-09T05:23:46;96429.27;;;14.40;91.32
72118;BME280;59992;47.490;8.736;2022-09-09T05:26:35;96432.33;;;14.36;91.67
72118;BME280;59992;47.490;8.736;2022-09-09T05:29:23;96437.20;;;14.35;91.63
72118;BME280;59992;47.490;8.736;2022-09-09T05:32:12;96438.02;;;14.39;91.34
72118;BME280;59992;47.490;8.736;2022-09-09T05:35:03;96439.61;;;14.42;90.82
72118;BME280;59992;47.490;8.736;2022-09-09T05:37:51;96438.09;;;14.43;90.58
72118;BME280;59992;47.490;8.736;2022-09-09T05:40:47;96439.45;;;14.43;92.11
72118;BME280;59992;47.490;8.736;2022-09-09T05:43:37;96436.34;;;14.43;91.56
72118;BME280;59992;47.490;8.736;2022-09-09T05:46:26;96438.53;;;14.44;92.02
72118;BME280;59992;47.490;8.736;2022-09-09T05:49:14;96446.21;;;14.47;92.02
72118;BME280;59992;47.490;8.736;2022-09-09T05:52:03;96447.05;;;14.51;91.03
72118;BME280;59992;47.490;8.736;2022-09-09T05:54:52;96439.96;;;14.50;90.46
72118;BME280;59992;47.490;8.736;2022-09-09T05:57:42;96453.79;;;14.58;90.11
72118;BME280;59992;47.490;8.736;2022-09-09T06:00:35;96459.13;;;14.59;91.20
72118;BME280;59992;47.490;8.736;2022-09-09T06:03:25;96461.47;;;14.64;90.41
72118;BME280;59992;47.490;8.736;2022-09-09T06:06:15;96451.16;;;14.69;89.91
72118;BME280;59992;47.490;8.736;2022-09-09T06:09:06;96450.43;;;14.75;89.64
72118;BME280;59992;47.490;8.736;2022-09-09T06:11:57;96449.35;;;14.80;89.50
72118;BME280;59992;47.490;8.736;2022-09-09T06:14:46;96449.48;;;14.85;90.70
72118;BME280;59992;47.490;8.736;2022-09-09T06:17:34;96452.72;;;14.88;89.98
72118;BME280;59992;47.490;8.736;2022-09-09T06:20:22;96455.41;;;14.99;89.12
72118;BME280;59992;47.490;8.736;2022-09-09T06:23:11;96454.76;;;15.07;89.12
72118;BME280;59992;47.490;8.736;2022-09-09T06:26:07;96450.52;;;15.13;89.58
72118;BME280;59992;47.490;8.736;2022-09-09T06:28:58;96445.58;;;15.20;88.79
72118;BME280;59992;47.490;8.736;2022-09-09T06:31:46;96442.48;;;15.26;89.70
72118;BME280;59992;47.490;8.736;2022-09-09T06:34:35;96444.46;;;15.38;88.87
72118;BME280;59992;47.490;8.736;2022-09-09T06:37:24;96447.87;;;15.55;88.06
72118;BME280;59992;47.490;8.736;2022-09-09T06:40:14;96450.23;;;15.73;87.52
72118;BME280;59992;47.490;8.736;2022-09-09T06:43:03;96453.86;;;15.93;86.79
72118;BME280;59992;47.490;8.736;2022-09-09T06:45:56;96451.16;;;16.10;86.86
72118;BME280;59992;47.490;8.736;2022-09-09T06:48:45;96450.15;;;16.41;85.53
72118;BME280;59992;47.490;8.736;2022-09-09T06:51:35;96448.30;;;16.63;83.95
72118;BME280;59992;47.490;8.736;2022-09-09T06:54:24;96452.26;;;16.70;82.72
72118;BME280;59992;47.490;8.736;2022-09-09T06:57:13;96452.16;;;16.77;83.37
72118;BME280;59992;47.490;8.736;2022-09-09T07:00:03;96449.11;;;16.88;82.84
72118;BME280;59992;47.490;8.736;2022-09-09T07:02:52;96450.51;;;16.97;81.26
72118;BME280;59992;47.490;8.736;2022-09-09T07:05:40;96451.98;;;17.02;82.01
72118;BME280;59992;47.490;8.736;2022-09-09T07:08:28;96451.02;;;17.04;81.89
72118;BME280;59992;47.490;8.736;2022-09-09T07:11:19;96451.94;;;17.05;81.80
72118;BME280;59992;47.490;8.736;2022-09-09T07:14:08;96455.73;;;17.07;81.47
72118;BME280;59992;47.490;8.736;2022-09-09T07:16:59;96459.93;;;17.44;82.14
72118;BME280;59992;47.490;8.736;2022-09-09T07:19:48;96455.63;;;17.79;82.09
72118;BME280;59992;47.490;8.736;2022-09-09T07:22:36;96454.21;;;18.03;80.79
72118;BME280;59992;47.490;8.736;2022-09-09T07:25:25;96453.46;;;18.15;78.92
72118;BME280;59992;47.490;8.736;2022-09-09T07:28:15;96454.16;;;18.23;77.58
72118;BME280;59992;47.490;8.736;2022-09-09T07:31:04;96449.64;;;18.47;77.03
72118;BME280;59992;47.490;8.736;2022-09-09T07:33:53;96451.56;;;18.67;77.16
72118;BME280;59992;47.490;8.736;2022-09-09T07:36:41;96449.30;;;19.11;75.94
72118;BME280;59992;47.490;8.736;2022-09-09T07:39:30;96452.44;;;19.55;72.48
72118;BME280;59992;47.490;8.736;2022-09-09T07:42:18;96456.77;;;19.72;70.93
72118;BME280;59992;47.490;8.736;2022-09-09T07:45:07;96459.52;;;20.04;69.58
72118;BME280;59992;47.490;8.736;2022-09-09T07:47:55;96464.34;;;20.46;69.52
72118;BME280;59992;47.490;8.736;2022-09-09T07:50:44;96466.54;;;20.61;67.48
72118;BME280;59992;47.490;8.736;2022-09-09T07:53:33;96471.98;;;21.00;65.44
72118;BME280;59992;47.490;8.736;2022-09-09T07:56:22;96473.04;;;21.29;64.62
72118;BME280;59992;47.490;8.736;2022-09-09T07:59:10;96474.85;;;21.55;64.25
72118;BME280;59992;47.490;8.736;2022-09-09T08:01:59;96473.48;;;21.98;63.08
72118;BME280;59992;47.490;8.736;2022-09-09T08:04:48;96472.91;;;22.13;62.83
72118;BME280;59992;47.490;8.736;2022-09-09T08:07:36;96472.16;;;22.50;60.48
72118;BME280;59992;47.490;8.736;2022-09-09T08:10:25;96480.48;;;22.60;60.89
72118;BME280;59992;47.490;8.736;2022-09-09T08:13:13;96484.38;;;22.61;60.15
72118;BME280;59992;47.490;8.736;2022-09-09T08:16:07;96485.72;;;22.90;60.89
72118;BME280;59992;47.490;8.736;2022-09-09T08:18:55;96487.36;;;22.95;59.96
72118;BME280;59992;47.490;8.736;2022-09-09T08:21:44;96486.94;;;22.92;58.66
72118;BME280;59992;47.490;8.736;2022-09-09T08:24:32;96487.52;;;22.70;59.31
72118;BME280;59992;47.490;8.736;2022-09-09T08:27:21;96486.38;;;22.65;59.59
72118;BME280;59992;47.490;8.736;2022-09-09T08:30:12;96491.91;;;22.41;60.64
72118;BME280;59992;47.490;8.736;2022-09-09T08:33:00;96490.05;;;22.30;60.35
72118;BME280;59992;47.490;8.736;2022-09-09T08:35:51;96490.09;;;22.33;60.92
72118;BME280;59992;47.490;8.736;2022-09-09T08:38:40;96490.91;;;22.25;60.54
72118;BME280;59992;47.490;8.736;2022-09-09T08:41:38;96490.96;;;22.13;60.55
72118;BME280;59992;47.490;8.736;2022-09-09T08:44:36;96497.39;;;22.14;63.07
72118;BME280;59992;47.490;8.736;2022-09-09T08:47:41;96494.80;;;22.18;62.17
72118;BME280;59992;47.490;8.736;2022-09-09T08:50:35;96493.71;;;22.09;59.94
72118;BME280;59992;47.490;8.736;2022-09-09T08:53:27;96490.58;;;21.84;61.10
72118;BME280;59992;47.490;8.736;2022-09-09T08:56:21;96495.52;;;21.59;62.44
72118;BME280;59992;47.490;8.736;2022-09-09T08:59:14;96500.16;;;21.42;62.74
72118;BME280;59992;47.490;8.736;2022-09-09T09:02:07;96503.24;;;21.22;64.68
72118;BME280;59992;47.490;8.736;2022-09-09T09:05:13;96502.36;;;20.99;65.44
72118;BME280;59992;47.490;8.736;2022-09-09T09:08:17;96497.94;;;20.75;65.00
72118;BME280;59992;47.490;8.736;2022-09-09T09:11:07;96497.60;;;20.57;68.09
72118;BME280;59992;47.490;8.736;2022-09-09T09:13:59;96494.09;;;20.47;68.03
72118;BME280;59992;47.490;8.736;2022-09-09T09:16:54;96495.93;;;20.65;66.76
72118;BME280;59992;47.490;8.736;2022-09-09T09:19:45;96495.55;;;20.97;64.46
72118;BME280;59992;47.490;8.736;2022-09-09T09:22:39;96486.48;;;21.15;64.42
72118;BME280;59992;47.490;8.736;2022-09-09T09:25:33;96488.27;;;21.47;64.18
72118;BME280;59992;47.490;8.736;2022-09-09T09:28:24;96489.29;;;21.64;60.38
72118;BME280;59992;47.490;8.736;2022-09-09T09:31:13;96487.71;;;21.60;59.71
72118;BME280;59992;47.490;8.736;2022-09-09T09:34:02;96486.38;;;21.59;60.22
72118;BME280;59992;47.490;8.736;2022-09-09T09:36:54;96487.44;;;21.54;59.69
72118;BME280;59992;47.490;8.736;2022-09-09T09:39:44;96488.58;;;21.09;57.62
72118;BME280;59992;47.490;8.736;2022-09-09T09:42:32;96488.98;;;20.95;58.67
72118;BME280;59992;47.490;8.736;2022-09-09T09:45:29;96494.75;;;20.96;59.65
72118;BME280;59992;47.490;8.736;2022-09-09T09:48:19;96490.86;;;20.83;58.75
72118;BME280;59992;47.490;8.736;2022-09-09T09:51:09;96483.78;;;20.64;58.53
72118;BME280;59992;47.490;8.736;2022-09-09T09:54:09;96490.92;;;20.62;60.25
72118;BME280;59992;47.490;8.736;2022-09-09T09:57:10;96490.52;;;20.65;63.12
72118;BME280;59992;47.490;8.736;2022-09-09T10:00:06;96491.35;;;20.79;61.34
72118;BME280;59992;47.490;8.736;2022-09-09T10:03:01;96474.01;;;20.81;60.90
72118;BME280;59992;47.490;8.736;2022-09-09T10:05:49;96487.93;;;21.08;59.86
72118;BME280;59992;47.490;8.736;2022-09-09T10:08:45;96486.69;;;21.29;58.07
72118;BME280;59992;47.490;8.736;2022-09-09T10:11:43;96490.20;;;21.38;57.71
72118;BME280;59992;47.490;8.736;2022-09-09T10:14:41;96484.78;;;21.46;57.08
72118;BME280;59992;47.490;8.736;2022-09-09T10:17:39;96487.69;;;21.51;56.36
72118;BME280;59992;47.490;8.736;2022-09-09T10:20:34;96490.82;;;21.37;56.97
72118;BME280;59992;47.490;8.736;2022-09-09T10:23:44;96497.32;;;21.08;57.15
72118;BME280;59992;47.490;8.736;2022-09-09T10:26:42;96506.77;;;20.79;58.01
72118;BME280;59992;47.490;8.736;2022-09-09T10:29:44;96502.84;;;20.45;57.73
72118;BME280;59992;47.490;8.736;2022-09-09T10:32:41;96497.36;;;20.46;58.58
72118;BME280;59992;47.490;8.736;2022-09-09T10:35:35;96496.30;;;20.36;58.00
72118;BME280;59992;47.490;8.736;2022-09-09T10:38:32;96504.31;;;20.25;59.16
72118;BME280;59992;47.490;8.736;2022-09-09T10:41:36;96503.17;;;20.21;60.04
72118;BME280;59992;47.490;8.736;2022-09-09T10:44:38;96511.45;;;20.12;59.68
72118;BME280;59992;47.490;8.736;2022-09-09T10:47:45;96521.31;;;20.15;60.33
72118;BME280;59992;47.490;8.736;2022-09-09T10:50:46;96519.11;;;20.29;60.45
72118;BME280;59992;47.490;8.736;2022-09-09T10:53:41;96510.20;;;20.40;59.65
72118;BME280;59992;47.490;8.736;2022-09-09T10:56:35;96507.88;;;20.38;59.71
72118;BME280;59992;47.490;8.736;2022-09-09T10:59:26;96505.91;;;20.43;58.27
72118;BME280;59992;47.490;8.736;2022-09-09T11:02:21;96502.32;;;20.45;58.38
72118;BME280;59992;47.490;8.736;2022-09-09T11:05:17;96494.15;;;20.53;58.22
72118;BME280;59992;47.490;8.736;2022-09-09T11:08:12;96499.73;;;20.61;57.51
72118;BME280;59992;47.490;8.736;2022-09-09T11:11:03;96496.08;;;20.56;57.70
72118;BME280;59992;47.490;8.736;2022-09-09T11:13:57;96497.27;;;20.50;57.67
72118;BME280;59992;47.490;8.736;2022-09-09T11:16:52;96493.30;;;20.51;57.32
72118;BME280;59992;47.490;8.736;2022-09-09T11:19:42;96488.67;;;20.59;57.47
72118;BME280;59992;47.490;8.736;2022-09-09T11:22:33;96488.11;;;20.55;56.77
72118;BME280;59992;47.490;8.736;2022-09-09T11:25:28;96482.29;;;20.51;57.03
72118;BME280;59992;47.490;8.736;2022-09-09T11:28:31;96467.56;;;20.41;57.32
72118;BME280;59992;47.490;8.736;2022-09-09T11:31:36;96465.23;;;20.45;57.79
72118;BME280;59992;47.490;8.736;2022-09-09T11:34:46;96467.45;;;20.37;57.41
72118;BME280;59992;47.490;8.736;2022-09-09T11:37:58;96465.10;;;20.38;59.28
72118;BME280;59992;47.490;8.736;2022-09-09T11:40:56;96460.20;;;20.40;59.50
72118;BME280;59992;47.490;8.736;2022-09-09T11:43:48;96457.36;;;20.45;57.36
72118;BME280;59992;47.490;8.736;2022-09-09T11:46:38;96451.98;;;20.48;57.60
72118;BME280;59992;47.490;8.736;2022-09-09T11:49:29;96447.48;;;20.49;58.08
72118;BME280;59992;47.490;8.736;2022-09-09T11:52:36;96448.65;;;20.54;58.22
72118;BME280;59992;47.490;8.736;2022-09-09T11:55:27;96434.30;;;20.53;57.52
72118;BME280;59992;47.490;8.736;2022-09-09T11:58:17;96439.70;;;20.55;57.42
72118;BME280;59992;47.490;8.736;2022-09-09T12:01:25;96449.23;;;20.58;57.86
72118;BME280;59992;47.490;8.736;2022-09-09T12:04:27;96447.36;;;20.56;57.24
72118;BME280;59992;47.490;8.736;2022-09-09T12:07:35;96444.36;;;20.48;57.40
72118;BME280;59992;47.490;8.736;2022-09-09T12:10:28;96440.70;;;20.53;57.18
72118;BME280;59992;47.490;8.736;2022-09-09T12:13:19;96441.27;;;20.48;58.80
72118;BME280;59992;47.490;8.736;2022-09-09T12:16:29;96443.70;;;20.50;60.04
72118;BME280;59992;47.490;8.736;2022-09-09T12:19:21;96432.84;;;20.44;59.36
72118;BME280;59992;47.490;8.736;2022-09-09T12:22:18;96429.98;;;20.56;59.35
72118;BME280;59992;47.490;8.736;2022-09-09T12:25:18;96427.14;;;20.64;57.79
72118;BME280;59992;47.490;8.736;2022-09-09T12:28:15;96422.62;;;20.74;58.57
72118;BME280;59992;47.490;8.736;2022-09-09T12:31:07;96425.14;;;20.83;58.95
72118;BME280;59992;47.490;8.736;2022-09-09T12:34:06;96420.38;;;20.92;58.05
72118;BME280;59992;47.490;8.736;2022-09-09T12:37:00;96415.54;;;21.00;59.64
72118;BME280;59992;47.490;8.736;2022-09-09T12:39:54;96400.15;;;21.07;57.54
72118;BME280;59992;47.490;8.736;2022-09-09T12:42:43;96398.95;;;21.16;57.27
72118;BME280;59992;47.490;8.736;2022-09-09T12:45:33;96399.35;;;21.28;56.26
72118;BME280;59992;47.490;8.736;2022-09-09T12:48:28;96398.29;;;21.37;53.83
72118;BME280;59992;47.490;8.736;2022-09-09T12:51:21;96394.54;;;21.38;52.08
72118;BME280;59992;47.490;8.736;2022-09-09T12:54:14;96389.61;;;21.48;52.36
72118;BME280;59992;47.490;8.736;2022-09-09T12:57:03;96381.67;;;21.52;53.01
72118;BME280;59992;47.490;8.736;2022-09-09T13:00:03;96379.85;;;21.54;52.85
72118;BME280;59992;47.490;8.736;2022-09-09T13:02:54;96376.29;;;21.46;51.00
72118;BME280;59992;47.490;8.736;2022-09-09T13:05:42;96387.22;;;21.29;52.45
72118;BME280;59992;47.490;8.736;2022-09-09T13:08:32;96387.20;;;21.20;53.48
72118;BME280;59992;47.490;8.736;2022-09-09T13:11:22;96382.96;;;21.20;54.30
72118;BME280;59992;47.490;8.736;2022-09-09T13:14:17;96377.69;;;21.23;53.37
72118;BME280;59992;47.490;8.736;2022-09-09T13:17:19;96371.68;;;21.16;51.80
72118;BME280;59992;47.490;8.736;2022-09-09T13:20:17;96367.29;;;21.16;53.63
72118;BME280;59992;47.490;8.736;2022-09-09T13:23:05;96374.11;;;21.10;52.53
72118;BME280;59992;47.490;8.736;2022-09-09T13:25:56;96374.46;;;21.13;54.22
72118;BME280;59992;47.490;8.736;2022-09-09T13:28:45;96371.43;;;21.12;53.47
72118;BME280;59992;47.490;8.736;2022-09-09T13:31:36;96365.59;;;21.12;54.56
72118;BME280;59992;47.490;8.736;2022-09-09T13:34:27;96365.96;;;21.27;56.80
72118;BME280;59992;47.490;8.736;2022-09-09T13:37:22;96362.43;;;21.40;54.58
72118;BME280;59992;47.490;8.736;2022-09-09T13:40:19;96359.06;;;21.47;53.14
72118;BME280;59992;47.490;8.736;2022-09-09T13:43:16;96351.41;;;21.61;53.78
72118;BME280;59992;47.490;8.736;2022-09-09T13:46:26;96338.61;;;21.64;51.51
72118;BME280;59992;47.490;8.736;2022-09-09T13:49:22;96342.61;;;21.77;56.06
72118;BME280;59992;47.490;8.736;2022-09-09T13:52:12;96341.66;;;21.78;56.13
72118;BME280;59992;47.490;8.736;2022-09-09T13:55:01;96338.46;;;21.76;54.75
72118;BME280;59992;47.490;8.736;2022-09-09T13:57:53;96336.83;;;21.73;56.87
72118;BME280;59992;47.490;8.736;2022-09-09T14:00:42;96334.80;;;21.74;56.91
72118;BME280;59992;47.490;8.736;2022-09-09T14:03:31;96336.58;;;21.81;56.74
72118;BME280;59992;47.490;8.736;2022-09-09T14:06:19;96324.18;;;21.87;51.68
72118;BME280;59992;47.490;8.736;2022-09-09T14:09:12;96327.39;;;21.98;53.89
72118;BME280;59992;47.490;8.736;2022-09-09T14:12:01;96321.98;;;22.03;50.98
72118;BME280;59992;47.490;8.736;2022-09-09T14:14:49;96320.58;;;22.03;48.80
72118;BME280;59992;47.490;8.736;2022-09-09T14:17:38;96326.67;;;21.99;49.62
72118;BME280;59992;47.490;8.736;2022-09-09T14:20:26;96328.77;;;22.00;50.60
72118;BME280;59992;47.490;8.736;2022-09-09T14:23:15;96332.86;;;21.85;47.83
72118;BME280;59992;47.490;8.736;2022-09-09T14:26:04;96333.08;;;21.79;48.00
72118;BME280;59992;47.490;8.736;2022-09-09T14:28:52;96335.95;;;21.81;50.21
72118;BME280;59992;47.490;8.736;2022-09-09T14:31:40;96338.38;;;21.75;52.31
72118;BME280;59992;47.490;8.736;2022-09-09T14:34:29;96338.40;;;21.84;51.43
72118;BME280;59992;47.490;8.736;2022-09-09T14:37:20;96338.94;;;21.82;49.78
72118;BME280;59992;47.490;8.736;2022-09-09T14:40:09;96335.73;;;21.87;48.62
72118;BME280;59992;47.490;8.736;2022-09-09T14:42:59;96341.02;;;22.03;49.38
72118;BME280;59992;47.490;8.736;2022-09-09T14:45:47;96349.08;;;22.07;47.53
72118;BME280;59992;47.490;8.736;2022-09-09T14:48:36;96349.61;;;22.11;48.58
72118;BME280;59992;47.490;8.736;2022-09-09T14:51:25;96347.61;;;22.07;48.94
72118;BME280;59992;47.490;8.736;2022-09-09T14:54:14;96346.02;;;22.10;48.91
72118;BME280;59992;47.490;8.736;2022-09-09T14:57:04;96352.42;;;22.19;48.48
72118;BME280;59992;47.490;8.736;2022-09-09T14:59:52;96347.69;;;22.19;48.62
72118;BME280;59992;47.490;8.736;2022-09-09T15:02:41;96350.46;;;22.19;48.27
72118;BME280;59992;47.490;8.736;2022-09-09T15:05:29;96354.25;;;22.15;47.60
72118;BME280;59992;47.490;8.736;2022-09-09T15:08:19;96354.60;;;21.99;48.04
72118;BME280;59992;47.490;8.736;2022-09-09T15:11:08;96362.30;;;21.88;48.80
72118;BME280;59992;47.490;8.736;2022-09-09T15:13:56;96367.30;;;21.84;49.35